Decoded Metar for KEHO (SHELBY MUNI in NC, USA) (IATA:EHO) | Meteo·Mobile Aviation Weather
aviador You're here:

KEHO Decoded Metar

SHELBY MUNI in NC, USA
Report Time2018-12-14 13:20:00
UTC Time2018-12-14 13:33:23
Flight Rules ifr IFR
Wind040° at 06 kt
W.Decomp.*RWY 05: 6.0 kt HW 0.4 kt LCW
W.Rank040° ranks 2
Current wind is above 040° avg. (5.4)
Visibility6437 m
Phenomena:Drizzle
Clouds:Broken 007 Hf
Overcast 011 Hf
Ceiling700 ft
Temp03°C (ISA -10)
Dew Point03°C (100% RH)
AAT-0.7°C
QNH1024 hPa
Density Alt-673 ft
Elevation846 ft
Report Wrong Elevation
Raw Report
METAR KEHO 141320Z AUTO 04006KT 4SM DZ BKN007 OVC011 03/03 A3025 RMK
AO2 P0001 T00330031=

Extra information for KEHO:More info

Metar Taf Metar & Taf Last 4 Metars F.Rules Stats Wind Profile Meteogram Temp Stats Airport Information Weather charts Add Link Nearby VenuesMetar ALERT Operation Metar Decoded Social comments

AIRNAV info for KEHO